createdAt,value
2019-03-31T00:01:08.140Z,45.69
2019-03-31T00:01:58.564Z,45.59
2019-03-31T00:02:58.574Z,45.50
2019-03-31T00:03:58.588Z,45.59
2019-03-31T00:04:58.592Z,45.50
2019-03-31T00:05:58.606Z,45.78
2019-03-31T00:06:58.615Z,45.69
2019-03-31T00:07:58.621Z,45.69
2019-03-31T00:08:58.631Z,45.50
2019-03-31T00:09:58.648Z,45.69
2019-03-31T00:11:00.598Z,45.31
2019-03-31T00:11:58.670Z,45.59
2019-03-31T00:12:58.670Z,46.16
2019-03-31T00:13:58.678Z,46.35
2019-03-31T00:14:58.690Z,46.54
2019-03-31T00:15:58.701Z,47.02
2019-03-31T00:16:58.715Z,47.20
2019-03-31T00:17:58.716Z,47.39
2019-03-31T00:18:58.727Z,47.30
2019-03-31T00:19:58.738Z,46.99
2019-03-31T00:20:58.747Z,46.92
2019-03-31T00:21:58.760Z,46.42
2019-03-31T00:22:58.769Z,45.86
2019-03-31T00:23:58.779Z,45.31
2019-03-31T00:24:58.788Z,45.50
2019-03-31T00:25:58.799Z,45.69
2019-03-31T00:26:58.809Z,45.86
2019-03-31T00:27:58.813Z,45.29
2019-03-31T00:28:58.830Z,45.31
2019-03-31T00:29:58.846Z,44.72
2019-03-31T00:30:58.847Z,44.65
2019-03-31T00:31:58.860Z,44.72
2019-03-31T00:32:58.869Z,44.34
2019-03-31T00:33:58.877Z,44.72
2019-03-31T00:34:58.890Z,44.91
2019-03-31T00:35:58.897Z,45.48
2019-03-31T00:36:58.905Z,45.57
2019-03-31T00:37:58.916Z,45.10
2019-03-31T00:38:58.923Z,44.36
2019-03-31T00:39:58.935Z,43.96
2019-03-31T00:40:58.942Z,44.46
2019-03-31T00:41:58.951Z,44.34
2019-03-31T00:42:58.966Z,44.62
2019-03-31T00:43:58.974Z,44.62
2019-03-31T00:44:58.983Z,44.53
2019-03-31T00:45:58.992Z,44.55
2019-03-31T00:47:02.035Z,44.15
2019-03-31T00:47:59.008Z,43.68
2019-03-31T00:48:59.022Z,43.39
2019-03-31T00:49:59.034Z,42.92
2019-03-31T00:50:59.042Z,42.07
2019-03-31T00:51:59.055Z,42.07
2019-03-31T00:52:59.061Z,41.69
2019-03-31T00:53:59.070Z,41.69
2019-03-31T00:54:59.077Z,41.69
2019-03-31T00:55:59.092Z,42.07
2019-03-31T00:56:59.099Z,42.16
2019-03-31T00:57:59.109Z,41.97
2019-03-31T00:58:59.117Z,42.44
2019-03-31T00:59:59.127Z,42.54
2019-03-31T01:00:59.140Z,42.92
2019-03-31T01:01:59.146Z,43.96
2019-03-31T01:02:59.156Z,43.87
2019-03-31T01:03:59.165Z,44.53
2019-03-31T01:04:59.176Z,44.15
2019-03-31T01:05:59.186Z,43.96
2019-03-31T01:06:59.196Z,43.20
2019-03-31T01:07:59.204Z,42.44
2019-03-31T01:08:59.212Z,42.07
2019-03-31T01:09:59.225Z,42.25
2019-03-31T01:10:59.235Z,41.97
2019-03-31T01:11:59.323Z,42.25
2019-03-31T01:12:59.251Z,41.78
2019-03-31T01:13:59.260Z,41.78
2019-03-31T01:14:59.272Z,41.78
2019-03-31T01:15:59.281Z,41.88
2019-03-31T01:16:59.291Z,41.78
2019-03-31T01:17:59.299Z,41.78
2019-03-31T01:18:59.310Z,41.50
2019-03-31T01:19:59.320Z,41.69
2019-03-31T01:20:59.330Z,41.21
2019-03-31T01:21:59.342Z,41.12
2019-03-31T01:22:59.343Z,41.12
2019-03-31T01:23:59.356Z,41.02
2019-03-31T01:24:59.364Z,41.50
2019-03-31T01:26:00.615Z,41.21
2019-03-31T01:26:59.384Z,41.40
2019-03-31T01:27:59.388Z,41.21
2019-03-31T01:28:59.402Z,41.12
2019-03-31T01:29:59.410Z,41.50
2019-03-31T01:30:59.420Z,41.40
2019-03-31T01:31:59.427Z,41.21
2019-03-31T01:32:59.440Z,41.12
2019-03-31T01:33:59.450Z,42.07
2019-03-31T01:34:59.455Z,42.07
2019-03-31T01:35:59.468Z,41.88
2019-03-31T01:36:59.480Z,41.78
2019-03-31T01:37:59.484Z,41.40
2019-03-31T01:38:59.494Z,40.83
2019-03-31T01:39:59.509Z,40.45
2019-03-31T01:40:59.510Z,40.64
2019-03-31T01:41:59.521Z,40.83
2019-03-31T01:42:59.530Z,41.12
2019-03-31T01:43:59.543Z,41.12
2019-03-31T01:44:59.553Z,41.40
2019-03-31T01:45:59.557Z,41.12
2019-03-31T01:46:59.575Z,41.59
2019-03-31T01:47:59.577Z,41.21
2019-03-31T01:48:59.589Z,40.45
2019-03-31T01:49:59.598Z,40.36
2019-03-31T01:50:59.608Z,40.17
2019-03-31T01:51:59.618Z,39.60
2019-03-31T01:52:59.626Z,39.89
2019-03-31T01:53:59.640Z,40.26
2019-03-31T01:54:59.645Z,40.45
2019-03-31T01:55:59.654Z,40.64
2019-03-31T01:56:59.666Z,40.83
2019-03-31T01:57:59.680Z,40.74
2019-03-31T01:58:59.683Z,40.55
2019-03-31T01:59:59.695Z,40.64
2019-03-31T02:00:59.700Z,40.55
2019-03-31T02:02:04.303Z,40.64
2019-03-31T02:02:59.718Z,40.74
2019-03-31T02:03:59.726Z,41.02
2019-03-31T02:04:59.736Z,41.02
2019-03-31T02:05:59.747Z,40.74
2019-03-31T02:06:59.754Z,39.89
2019-03-31T02:07:59.763Z,37.90
2019-03-31T02:08:59.776Z,37.71
2019-03-31T02:09:59.782Z,37.80
2019-03-31T02:10:59.807Z,38.28
2019-03-31T02:11:59.801Z,38.28
2019-03-31T02:12:59.813Z,37.80
2019-03-31T02:13:59.821Z,37.61
2019-03-31T02:14:59.829Z,37.80
2019-03-31T02:15:59.837Z,37.04
2019-03-31T02:16:59.848Z,37.14
2019-03-31T02:17:59.858Z,37.61
2019-03-31T02:18:59.868Z,37.99
2019-03-31T02:19:59.878Z,38.28
2019-03-31T02:20:59.884Z,38.37
2019-03-31T02:21:59.893Z,38.37
2019-03-31T02:22:59.908Z,38.37
2019-03-31T02:23:59.912Z,38.65
2019-03-31T02:24:59.925Z,38.37
2019-03-31T02:25:59.930Z,38.46
2019-03-31T02:26:59.944Z,38.37
2019-03-31T02:27:59.947Z,38.75
2019-03-31T02:28:59.962Z,39.32
2019-03-31T02:29:59.967Z,39.32
2019-03-31T02:30:59.978Z,39.32
2019-03-31T02:32:00.004Z,39.13
2019-03-31T02:33:00.002Z,38.75
2019-03-31T02:34:00.008Z,39.03
2019-03-31T02:35:00.019Z,37.88
2019-03-31T02:36:00.024Z,37.80
2019-03-31T02:37:00.031Z,37.90
2019-03-31T02:38:00.042Z,38.28
2019-03-31T02:39:00.068Z,37.99
2019-03-31T02:40:00.414Z,37.80
2019-03-31T02:41:00.073Z,37.52
2019-03-31T02:42:00.091Z,37.88
2019-03-31T02:43:00.092Z,37.78
2019-03-31T02:44:00.103Z,37.78
2019-03-31T02:45:00.634Z,38.16
2019-03-31T02:46:00.115Z,38.16
2019-03-31T02:47:00.126Z,37.88
2019-03-31T02:48:00.147Z,38.82
2019-03-31T02:49:00.146Z,38.54
2019-03-31T02:50:00.592Z,37.97
2019-03-31T02:51:00.168Z,37.78
2019-03-31T02:52:00.168Z,38.35
2019-03-31T02:53:00.179Z,38.82
2019-03-31T02:54:00.187Z,38.54
2019-03-31T02:55:00.523Z,39.01
2019-03-31T02:56:00.210Z,38.54
2019-03-31T02:57:00.217Z,39.01
2019-03-31T02:58:00.227Z,38.26
2019-03-31T02:59:00.240Z,37.69
2019-03-31T03:00:00.490Z,37.78
2019-03-31T03:01:00.253Z,37.69
2019-03-31T03:02:00.265Z,37.50
2019-03-31T03:03:00.268Z,37.59
2019-03-31T03:04:00.277Z,37.12
2019-03-31T03:05:17.725Z,37.02
2019-03-31T03:06:00.329Z,37.12
2019-03-31T03:07:00.305Z,37.59
2019-03-31T03:08:00.316Z,37.69
2019-03-31T03:09:00.327Z,37.88
2019-03-31T03:10:00.599Z,37.88
2019-03-31T03:11:00.344Z,38.16
2019-03-31T03:12:00.354Z,38.07
2019-03-31T03:13:00.359Z,38.45
2019-03-31T03:14:00.368Z,38.35
2019-03-31T03:15:00.604Z,38.26
2019-03-31T03:16:00.385Z,37.78
2019-03-31T03:17:00.398Z,37.59
2019-03-31T03:18:00.419Z,37.78
2019-03-31T03:19:00.418Z,38.45
2019-03-31T03:20:00.451Z,39.29
2019-03-31T03:21:00.432Z,40.15
2019-03-31T03:22:00.442Z,39.68
2019-03-31T03:23:00.449Z,40.25
2019-03-31T03:24:00.464Z,40.06
2019-03-31T03:25:00.539Z,40.63
2019-03-31T03:26:00.477Z,40.25
2019-03-31T03:27:00.490Z,40.15
2019-03-31T03:28:00.495Z,40.15
2019-03-31T03:29:00.501Z,40.06
2019-03-31T03:30:00.738Z,40.15
2019-03-31T03:31:01.044Z,40.34
2019-03-31T03:32:00.544Z,39.87
2019-03-31T03:33:14.496Z,39.58
2019-03-31T03:34:00.551Z,38.82
2019-03-31T03:35:01.114Z,38.73
2019-03-31T03:36:00.563Z,38.82
2019-03-31T03:37:00.581Z,38.92
2019-03-31T03:38:00.598Z,39.39
2019-03-31T03:39:00.615Z,40.15
2019-03-31T03:40:00.601Z,39.87
2019-03-31T03:41:00.615Z,40.34
2019-03-31T03:42:00.631Z,40.53
2019-03-31T03:43:00.630Z,41.19
2019-03-31T03:44:02.524Z,41.09
2019-03-31T03:45:00.647Z,41.66
2019-03-31T03:46:00.662Z,41.76
2019-03-31T03:47:00.668Z,41.76
2019-03-31T03:48:00.676Z,42.14
2019-03-31T03:49:00.811Z,42.14
2019-03-31T03:50:00.721Z,41.66
2019-03-31T03:51:00.705Z,40.34
2019-03-31T03:52:00.708Z,38.73
2019-03-31T03:53:00.715Z,37.69
2019-03-31T03:54:00.725Z,36.55
2019-03-31T03:55:00.732Z,37.02
2019-03-31T03:56:00.778Z,38.07
2019-03-31T03:57:00.755Z,39.20
2019-03-31T03:58:00.762Z,39.58
2019-03-31T03:59:00.775Z,39.29
2019-03-31T04:00:00.783Z,39.29
2019-03-31T04:01:00.792Z,39.01
2019-03-31T04:02:00.886Z,38.82
2019-03-31T04:03:00.810Z,39.11
2019-03-31T04:04:00.814Z,38.26
2019-03-31T04:05:00.821Z,38.54
2019-03-31T04:06:00.875Z,38.64
2019-03-31T04:07:00.842Z,38.82
2019-03-31T04:08:00.848Z,38.73
2019-03-31T04:09:00.857Z,38.92
2019-03-31T04:10:00.869Z,38.45
2019-03-31T04:11:00.877Z,38.16
2019-03-31T04:12:00.883Z,37.78
2019-03-31T04:13:00.895Z,38.45
2019-03-31T04:14:00.906Z,39.29
2019-03-31T04:15:00.909Z,39.58
2019-03-31T04:16:00.923Z,40.15
2019-03-31T04:17:00.929Z,40.53
2019-03-31T04:18:00.977Z,40.15
2019-03-31T04:19:01.034Z,40.44
2019-03-31T04:20:00.952Z,40.25
2019-03-31T04:21:00.992Z,39.68
2019-03-31T04:22:00.978Z,40.25
2019-03-31T04:23:00.987Z,40.44
2019-03-31T04:24:00.989Z,40.44
2019-03-31T04:25:01.006Z,40.44
2019-03-31T04:26:01.009Z,40.72
2019-03-31T04:27:01.019Z,40.53
2019-03-31T04:28:01.036Z,41.09
2019-03-31T04:29:01.033Z,41.19
2019-03-31T04:30:01.040Z,40.91
2019-03-31T04:31:01.054Z,40.72
2019-03-31T04:32:01.058Z,41.00
2019-03-31T04:33:01.064Z,40.72
2019-03-31T04:34:01.080Z,40.91
2019-03-31T04:35:01.094Z,40.63
2019-03-31T04:36:01.112Z,40.53
2019-03-31T04:37:01.101Z,40.63
2019-03-31T04:38:01.119Z,40.63
2019-03-31T04:39:01.130Z,41.00
2019-03-31T04:40:01.132Z,41.28
2019-03-31T04:41:01.136Z,41.95
2019-03-31T04:42:01.147Z,40.63
2019-03-31T04:43:01.156Z,40.15
2019-03-31T04:44:01.164Z,39.29
2019-03-31T04:45:01.176Z,38.07
2019-03-31T04:46:01.195Z,35.89
2019-03-31T04:47:01.190Z,34.94
2019-03-31T04:48:01.207Z,34.75
2019-03-31T04:49:01.243Z,34.84
2019-03-31T04:50:01.218Z,35.13
2019-03-31T04:51:01.231Z,35.03
2019-03-31T04:52:01.232Z,35.79
2019-03-31T04:53:01.239Z,36.27
2019-03-31T04:54:01.245Z,36.74
2019-03-31T04:55:01.257Z,36.74
2019-03-31T04:56:01.268Z,36.36
2019-03-31T04:57:04.416Z,36.36
2019-03-31T04:58:01.283Z,36.27
2019-03-31T04:59:01.291Z,36.27
2019-03-31T05:00:01.296Z,35.98
2019-03-31T05:01:01.303Z,36.17
2019-03-31T05:02:01.321Z,36.08
2019-03-31T05:03:01.327Z,36.27
2019-03-31T05:04:04.832Z,36.17
2019-03-31T05:05:01.372Z,36.17
2019-03-31T05:06:01.378Z,35.79
2019-03-31T05:07:01.362Z,35.89
2019-03-31T05:08:01.364Z,35.89
2019-03-31T05:09:01.373Z,36.55
2019-03-31T05:10:01.383Z,36.74
2019-03-31T05:11:01.392Z,37.78
2019-03-31T05:12:01.403Z,37.69
2019-03-31T05:13:01.410Z,37.88
2019-03-31T05:14:01.415Z,38.82
2019-03-31T05:15:01.425Z,38.82
2019-03-31T05:16:01.434Z,38.92
2019-03-31T05:17:01.443Z,39.01
2019-03-31T05:18:01.452Z,38.82
2019-03-31T05:19:01.462Z,39.29
2019-03-31T05:20:01.470Z,39.20
2019-03-31T05:21:01.477Z,39.29
2019-03-31T05:22:01.488Z,38.82
2019-03-31T05:23:01.494Z,38.73
2019-03-31T05:24:01.501Z,38.73
2019-03-31T05:25:01.512Z,38.92
2019-03-31T05:26:01.520Z,39.01
2019-03-31T05:27:01.524Z,39.01
2019-03-31T05:28:01.538Z,39.11
2019-03-31T05:29:01.547Z,39.28
2019-03-31T05:30:01.556Z,39.20
2019-03-31T05:31:01.636Z,39.58
2019-03-31T05:32:01.575Z,39.68
2019-03-31T05:33:01.578Z,40.06
2019-03-31T05:34:01.615Z,40.25
2019-03-31T05:35:01.598Z,39.47
2019-03-31T05:36:01.603Z,39.96
2019-03-31T05:37:01.610Z,39.77
2019-03-31T05:38:01.621Z,39.96
2019-03-31T05:39:01.625Z,40.15
2019-03-31T05:40:01.638Z,40.15
2019-03-31T05:41:01.644Z,40.44
2019-03-31T05:42:01.653Z,40.34
2019-03-31T05:43:01.658Z,40.53
2019-03-31T05:44:05.800Z,40.72
2019-03-31T05:45:01.682Z,40.53
2019-03-31T05:46:01.688Z,40.53
2019-03-31T05:47:01.691Z,40.53
2019-03-31T05:48:01.702Z,40.63
2019-03-31T05:49:01.708Z,40.72
2019-03-31T05:50:01.715Z,41.19
2019-03-31T05:51:01.728Z,41.09
2019-03-31T05:52:01.730Z,41.38
2019-03-31T05:53:01.741Z,41.09
2019-03-31T05:54:01.752Z,41.09
2019-03-31T05:55:01.761Z,39.77
2019-03-31T05:56:01.766Z,40.25
2019-03-31T05:57:01.772Z,40.25
2019-03-31T05:58:01.780Z,40.63
2019-03-31T05:59:01.787Z,40.34
2019-03-31T06:00:01.796Z,40.72
2019-03-31T06:01:01.804Z,41.09
2019-03-31T06:02:01.812Z,41.09
2019-03-31T06:03:01.825Z,41.57
2019-03-31T06:04:01.832Z,41.47
2019-03-31T06:05:01.836Z,41.38
2019-03-31T06:06:01.848Z,41.09
2019-03-31T06:07:01.853Z,41.00
2019-03-31T06:08:01.870Z,40.72
2019-03-31T06:09:01.875Z,40.81
2019-03-31T06:10:01.879Z,41.19
2019-03-31T06:11:01.889Z,41.28
2019-03-31T06:12:01.898Z,41.38
2019-03-31T06:13:01.904Z,41.85
2019-03-31T06:14:01.915Z,41.66
2019-03-31T06:15:01.923Z,42.04
2019-03-31T06:16:01.931Z,41.85
2019-03-31T06:17:01.935Z,41.66
2019-03-31T06:18:01.945Z,42.04
2019-03-31T06:19:01.951Z,41.66
2019-03-31T06:20:01.959Z,41.09
2019-03-31T06:21:01.970Z,41.38
2019-03-31T06:22:01.981Z,41.09
2019-03-31T06:23:01.989Z,40.72
2019-03-31T06:24:02.000Z,41.09
2019-03-31T06:25:02.013Z,41.38
2019-03-31T06:26:02.019Z,41.38
2019-03-31T06:27:02.018Z,41.00
2019-03-31T06:28:02.026Z,40.34
2019-03-31T06:29:02.039Z,40.63
2019-03-31T06:30:02.048Z,40.53
2019-03-31T06:31:02.052Z,40.53
2019-03-31T06:32:02.067Z,40.44
2019-03-31T06:33:02.071Z,40.53
2019-03-31T06:34:02.077Z,40.44
2019-03-31T06:35:02.110Z,40.44
2019-03-31T06:36:02.101Z,39.49
2019-03-31T06:37:02.102Z,39.68
2019-03-31T06:38:02.110Z,40.25
2019-03-31T06:39:02.118Z,40.34
2019-03-31T06:40:02.131Z,40.63
2019-03-31T06:41:02.134Z,39.87
2019-03-31T06:42:02.144Z,39.87
2019-03-31T06:43:02.157Z,39.77
2019-03-31T06:44:02.165Z,39.77
2019-03-31T06:45:02.182Z,39.96
2019-03-31T06:46:02.243Z,39.98
2019-03-31T06:47:02.188Z,39.51
2019-03-31T06:48:02.197Z,39.13
2019-03-31T06:49:02.201Z,38.84
2019-03-31T06:50:02.212Z,38.94
2019-03-31T06:51:02.220Z,40.26
2019-03-31T06:52:02.234Z,41.12
2019-03-31T06:53:02.258Z,40.74
2019-03-31T06:54:02.250Z,38.77
2019-03-31T06:55:02.253Z,38.86
2019-03-31T06:56:02.266Z,38.77
2019-03-31T06:57:02.276Z,37.92
2019-03-31T06:58:02.282Z,37.54
2019-03-31T06:59:02.295Z,35.93
2019-03-31T07:00:02.299Z,36.78
2019-03-31T07:01:02.309Z,36.02
2019-03-31T07:02:03.317Z,37.16
2019-03-31T07:03:02.328Z,37.16
2019-03-31T07:04:02.333Z,36.78
2019-03-31T07:05:02.361Z,35.74
2019-03-31T07:06:02.356Z,35.83
2019-03-31T07:07:02.358Z,35.17
2019-03-31T07:08:02.372Z,35.64
2019-03-31T07:09:02.381Z,34.78
2019-03-31T07:10:02.390Z,35.45
2019-03-31T07:11:02.396Z,35.07
2019-03-31T07:12:02.402Z,35.55
2019-03-31T07:13:02.412Z,35.83
2019-03-31T07:14:02.426Z,36.97
2019-03-31T07:15:02.429Z,36.49
2019-03-31T07:16:02.468Z,36.59
2019-03-31T07:17:02.453Z,36.21
2019-03-31T07:18:02.461Z,36.02
2019-03-31T07:19:02.465Z,36.78
2019-03-31T07:20:02.475Z,37.25
2019-03-31T07:21:02.484Z,38.39
2019-03-31T07:22:02.491Z,37.82
2019-03-31T07:23:02.501Z,37.16
2019-03-31T07:24:02.509Z,36.99
2019-03-31T07:25:02.526Z,35.66
2019-03-31T07:26:02.535Z,35.17
2019-03-31T07:27:02.535Z,35.36
2019-03-31T07:28:02.547Z,35.83
2019-03-31T07:29:02.554Z,35.36
2019-03-31T07:30:02.565Z,35.07
2019-03-31T07:31:02.570Z,36.13
2019-03-31T07:32:02.589Z,37.74
2019-03-31T07:33:02.591Z,37.18
2019-03-31T07:34:02.600Z,36.99
2019-03-31T07:35:02.617Z,36.34
2019-03-31T07:36:02.621Z,35.57
2019-03-31T07:37:02.628Z,35.47
2019-03-31T07:38:02.640Z,35.77
2019-03-31T07:39:02.844Z,35.68
2019-03-31T07:40:03.082Z,34.44
2019-03-31T07:41:12.597Z,33.95
2019-03-31T07:42:03.087Z,34.52
2019-03-31T07:43:02.744Z,34.23
2019-03-31T07:44:02.690Z,34.05
2019-03-31T07:45:02.700Z,34.14
2019-03-31T07:46:02.709Z,34.05
2019-03-31T07:47:02.720Z,33.86
2019-03-31T07:48:02.726Z,34.05
2019-03-31T07:49:02.735Z,34.52
2019-03-31T07:50:02.747Z,34.34
2019-03-31T07:51:02.763Z,34.82
2019-03-31T07:52:02.776Z,35.11
2019-03-31T07:53:02.772Z,34.54
2019-03-31T07:54:02.807Z,33.78
2019-03-31T07:55:02.788Z,33.97
2019-03-31T07:56:02.795Z,34.54
2019-03-31T07:57:02.812Z,35.20
2019-03-31T07:58:02.849Z,34.44
2019-03-31T07:59:02.932Z,35.11
2019-03-31T08:00:02.834Z,34.63
2019-03-31T08:01:02.842Z,34.63
2019-03-31T08:02:02.862Z,34.73
2019-03-31T08:03:02.861Z,35.01
2019-03-31T08:04:02.878Z,35.77
2019-03-31T08:05:02.883Z,35.01
2019-03-31T08:06:02.890Z,34.92
2019-03-31T08:07:02.901Z,34.73
2019-03-31T08:08:03.003Z,35.01
2019-03-31T08:09:02.918Z,35.49
2019-03-31T08:10:02.929Z,36.05
2019-03-31T08:11:02.938Z,36.17
2019-03-31T08:12:02.949Z,35.50
2019-03-31T08:13:02.959Z,34.82
2019-03-31T08:14:02.967Z,34.16
2019-03-31T08:15:02.977Z,33.69
2019-03-31T08:16:02.983Z,34.06
2019-03-31T08:17:02.992Z,34.82
2019-03-31T08:18:03.009Z,33.78
2019-03-31T08:19:03.010Z,35.13
2019-03-31T08:20:03.020Z,35.13
2019-03-31T08:21:03.031Z,34.75
2019-03-31T08:22:03.049Z,34.55
2019-03-31T08:23:03.056Z,33.89
2019-03-31T08:24:06.523Z,33.80
2019-03-31T08:25:03.072Z,34.36
2019-03-31T08:26:03.078Z,34.55
2019-03-31T08:27:05.583Z,33.89
2019-03-31T08:28:03.100Z,34.46
2019-03-31T08:29:03.108Z,34.55
2019-03-31T08:30:03.121Z,33.91
2019-03-31T08:31:03.134Z,32.84
2019-03-31T08:32:03.140Z,34.08
2019-03-31T08:33:03.150Z,35.42
2019-03-31T08:34:03.164Z,34.19
2019-03-31T08:35:03.168Z,33.24
2019-03-31T08:36:03.176Z,33.15
2019-03-31T08:37:03.191Z,33.81
2019-03-31T08:38:03.199Z,34.59
2019-03-31T08:39:03.210Z,33.15
2019-03-31T08:40:03.214Z,33.72
2019-03-31T08:41:03.227Z,32.39
2019-03-31T08:42:03.234Z,32.96
2019-03-31T08:43:03.244Z,33.91
2019-03-31T08:44:03.261Z,34.00
2019-03-31T08:45:03.264Z,34.09
2019-03-31T08:46:03.284Z,33.15
2019-03-31T08:47:03.289Z,33.81
2019-03-31T08:48:03.294Z,34.86
2019-03-31T08:49:03.304Z,34.88
2019-03-31T08:50:03.318Z,34.11
2019-03-31T08:51:03.327Z,32.69
2019-03-31T08:52:03.336Z,32.88
2019-03-31T08:53:03.351Z,32.97
2019-03-31T08:54:03.372Z,32.67
2019-03-31T08:55:03.373Z,32.40
2019-03-31T08:56:03.378Z,32.69
2019-03-31T08:57:03.391Z,33.92
2019-03-31T08:58:03.404Z,33.09
2019-03-31T08:59:03.413Z,32.88
2019-03-31T09:00:03.424Z,32.31
2019-03-31T09:01:03.431Z,32.31
2019-03-31T09:02:03.586Z,31.17
2019-03-31T09:03:03.451Z,31.84
2019-03-31T09:04:03.468Z,32.78
2019-03-31T09:05:03.474Z,33.65
2019-03-31T09:06:03.486Z,32.23
2019-03-31T09:07:03.503Z,31.95
2019-03-31T09:08:03.507Z,31.47
2019-03-31T09:09:03.514Z,30.41
2019-03-31T09:10:03.524Z,30.01
2019-03-31T09:11:03.555Z,31.25
2019-03-31T09:12:03.549Z,33.07
2019-03-31T09:13:03.560Z,32.21
2019-03-31T09:14:03.574Z,32.69
2019-03-31T09:15:03.579Z,31.95
2019-03-31T09:16:03.598Z,30.79
2019-03-31T09:17:03.602Z,30.22
2019-03-31T09:18:03.610Z,31.17
2019-03-31T09:19:03.620Z,31.26
2019-03-31T09:20:03.644Z,31.55
2019-03-31T09:21:03.643Z,30.22
2019-03-31T09:22:03.656Z,30.23
2019-03-31T09:23:03.736Z,31.47
2019-03-31T09:24:03.675Z,30.14
2019-03-31T09:25:03.688Z,30.62
2019-03-31T09:26:03.699Z,29.95
2019-03-31T09:27:03.713Z,27.94
2019-03-31T09:28:03.715Z,30.62
2019-03-31T09:29:03.735Z,31.18
2019-03-31T09:30:03.742Z,30.54
2019-03-31T09:31:03.755Z,29.11
2019-03-31T09:32:03.761Z,29.20
2019-03-31T09:33:03.769Z,28.63
2019-03-31T09:34:03.788Z,31.48
2019-03-31T09:35:03.799Z,31.21
2019-03-31T09:36:15.326Z,29.03
2019-03-31T09:37:03.814Z,28.55
2019-03-31T09:38:03.829Z,28.44
2019-03-31T09:39:03.837Z,28.72
2019-03-31T09:40:03.846Z,27.86
2019-03-31T09:41:03.859Z,28.52
2019-03-31T09:42:03.874Z,31.20
2019-03-31T09:43:03.892Z,29.96
2019-03-31T09:44:03.899Z,28.63
2019-03-31T09:45:03.906Z,28.14
2019-03-31T09:46:03.915Z,29.57
2019-03-31T09:47:03.932Z,30.34
2019-03-31T09:48:03.940Z,28.63
2019-03-31T09:49:03.953Z,27.78
2019-03-31T09:50:03.966Z,27.28
2019-03-31T09:51:03.976Z,28.92
2019-03-31T09:52:03.985Z,28.72
2019-03-31T09:53:03.998Z,27.68
2019-03-31T09:54:04.014Z,27.48
2019-03-31T09:55:04.021Z,27.48
2019-03-31T09:56:04.029Z,27.87
2019-03-31T09:57:04.044Z,28.44
2019-03-31T09:58:04.055Z,29.41
2019-03-31T09:59:04.063Z,27.60
2019-03-31T10:00:04.076Z,27.22
2019-03-31T10:01:04.089Z,27.60
2019-03-31T10:02:04.098Z,26.73
2019-03-31T10:03:04.115Z,29.04
2019-03-31T10:04:04.120Z,25.89
2019-03-31T10:05:04.135Z,27.50
2019-03-31T10:06:10.427Z,27.88
2019-03-31T10:07:04.155Z,28.93
2019-03-31T10:08:04.174Z,28.08
2019-03-31T10:09:04.178Z,26.76
2019-03-31T10:10:04.197Z,26.66
2019-03-31T10:11:04.202Z,24.96
2019-03-31T10:12:04.221Z,25.34
2019-03-31T10:13:04.226Z,25.23
2019-03-31T10:14:04.237Z,24.55
2019-03-31T10:15:04.253Z,26.65
2019-03-31T10:16:04.264Z,28.09
2019-03-31T10:17:04.281Z,25.34
2019-03-31T10:18:04.286Z,24.87
2019-03-31T10:19:04.297Z,22.86
2019-03-31T10:20:04.317Z,21.99
2019-03-31T10:21:04.325Z,24.87
2019-03-31T10:22:04.337Z,24.47
2019-03-31T10:23:04.353Z,24.18
2019-03-31T10:24:04.365Z,24.38
2019-03-31T10:25:04.374Z,24.76
2019-03-31T10:26:04.388Z,24.39
2019-03-31T10:27:04.401Z,22.75
2019-03-31T10:28:04.414Z,23.63
2019-03-31T10:29:04.423Z,25.05
2019-03-31T10:30:04.437Z,26.01
2019-03-31T10:31:04.450Z,27.18
2019-03-31T10:32:04.466Z,23.73
2019-03-31T10:33:04.484Z,26.32
2019-03-31T10:34:04.484Z,24.59
2019-03-31T10:35:04.498Z,24.67
2019-03-31T10:36:04.511Z,26.68
2019-03-31T10:37:04.526Z,27.18
2019-03-31T10:38:04.537Z,25.37
2019-03-31T10:39:04.550Z,25.56
2019-03-31T10:40:04.571Z,25.94
2019-03-31T10:41:04.575Z,26.70
2019-03-31T10:42:04.587Z,24.89
2019-03-31T10:43:04.604Z,25.85
2019-03-31T10:44:04.619Z,24.43
2019-03-31T10:45:04.630Z,21.84
2019-03-31T10:46:04.645Z,22.79
2019-03-31T10:47:04.654Z,23.65
2019-03-31T10:48:19.210Z,24.52
2019-03-31T10:49:04.681Z,21.26
2019-03-31T10:50:04.700Z,21.26
2019-03-31T10:51:04.711Z,23.27
2019-03-31T10:52:04.730Z,24.13
2019-03-31T10:53:04.747Z,24.52
2019-03-31T10:54:04.860Z,23.46
2019-03-31T10:55:04.767Z,25.09
2019-03-31T10:56:04.782Z,26.82
2019-03-31T10:57:04.793Z,25.79
2019-03-31T10:58:04.809Z,22.63
2019-03-31T10:59:04.819Z,20.81
2019-03-31T11:00:04.837Z,20.69
2019-03-31T11:01:04.847Z,21.74
2019-03-31T11:02:04.866Z,23.44
2019-03-31T11:03:04.884Z,23.43
2019-03-31T11:04:04.891Z,23.91
2019-03-31T11:05:04.905Z,23.72
2019-03-31T11:06:04.925Z,25.18
2019-03-31T11:07:04.935Z,25.08
2019-03-31T11:08:04.946Z,23.38
2019-03-31T11:09:04.961Z,24.24
2019-03-31T11:10:04.977Z,22.80
2019-03-31T11:11:04.991Z,23.09
2019-03-31T11:12:05.004Z,22.52
2019-03-31T11:13:05.021Z,22.89
2019-03-31T11:14:05.033Z,23.47
2019-03-31T11:15:05.051Z,22.33
2019-03-31T11:16:05.062Z,22.13
2019-03-31T11:17:05.078Z,21.17
2019-03-31T11:18:05.095Z,21.84
2019-03-31T11:19:05.105Z,22.89
2019-03-31T11:20:05.118Z,23.65
2019-03-31T11:21:05.135Z,22.49
2019-03-31T11:22:05.151Z,22.78
2019-03-31T11:23:05.168Z,22.48
2019-03-31T11:24:05.180Z,23.35
2019-03-31T11:25:05.190Z,24.11
2019-03-31T11:26:05.213Z,22.68
2019-03-31T11:27:05.224Z,22.69
2019-03-31T11:28:05.236Z,22.79
2019-03-31T11:29:05.250Z,21.73
2019-03-31T11:30:05.266Z,21.15
2019-03-31T11:31:05.279Z,22.10
2019-03-31T11:32:05.290Z,22.96
2019-03-31T11:33:07.439Z,22.19
2019-03-31T11:34:05.325Z,22.00
2019-03-31T11:35:05.340Z,23.16
2019-03-31T11:36:05.353Z,23.08
2019-03-31T11:37:13.324Z,22.13
2019-03-31T11:38:05.375Z,21.36
2019-03-31T11:39:05.395Z,20.50
2019-03-31T11:40:05.403Z,22.71
2019-03-31T11:41:05.421Z,21.84
2019-03-31T11:42:05.437Z,20.98
2019-03-31T11:43:05.448Z,20.98
2019-03-31T11:44:05.467Z,20.60
2019-03-31T11:45:05.477Z,20.50
2019-03-31T11:46:05.492Z,20.68
2019-03-31T11:47:05.506Z,20.87
2019-03-31T11:48:05.521Z,21.93
2019-03-31T11:49:05.534Z,21.64
2019-03-31T11:50:05.549Z,22.22
2019-03-31T11:51:05.564Z,21.36
2019-03-31T11:52:05.580Z,20.79
2019-03-31T11:53:05.590Z,22.89
2019-03-31T11:54:05.607Z,20.79
2019-03-31T11:55:05.624Z,20.50
2019-03-31T11:56:05.636Z,19.72
2019-03-31T11:57:05.648Z,20.59
2019-03-31T11:58:05.663Z,20.87
2019-03-31T11:59:05.676Z,20.69
2019-03-31T12:00:05.690Z,20.60
2019-03-31T12:01:05.710Z,20.79
2019-03-31T12:02:05.722Z,20.40
2019-03-31T12:03:05.733Z,20.49
2019-03-31T12:04:05.747Z,21.26
2019-03-31T12:05:06.341Z,20.79
2019-03-31T12:06:05.781Z,21.84
2019-03-31T12:07:05.797Z,21.94
2019-03-31T12:08:05.809Z,19.94
2019-03-31T12:09:05.823Z,20.79
2019-03-31T12:10:05.839Z,21.08
2019-03-31T12:11:05.850Z,20.51
2019-03-31T12:12:05.864Z,19.94
2019-03-31T12:13:05.883Z,20.42
2019-03-31T12:14:05.902Z,20.03
2019-03-31T12:15:05.911Z,19.27
2019-03-31T12:16:06.000Z,20.51
2019-03-31T12:17:05.942Z,19.25
2019-03-31T12:18:05.954Z,20.20
2019-03-31T12:19:05.973Z,21.74
2019-03-31T12:20:05.985Z,22.04
2019-03-31T12:21:05.997Z,20.60
2019-03-31T12:22:06.014Z,20.12
2019-03-31T12:23:06.028Z,20.50
2019-03-31T12:24:06.040Z,20.99
2019-03-31T12:25:06.054Z,20.03
2019-03-31T12:26:06.068Z,20.61
2019-03-31T12:27:06.094Z,20.70
2019-03-31T12:28:06.102Z,19.73
2019-03-31T12:29:06.113Z,21.17
2019-03-31T12:30:06.130Z,20.79
2019-03-31T12:31:06.146Z,20.50
2019-03-31T12:32:06.159Z,20.69
2019-03-31T12:33:06.174Z,20.70
2019-03-31T12:34:06.191Z,19.64
2019-03-31T12:35:06.204Z,20.03
2019-03-31T12:36:06.219Z,19.17
2019-03-31T12:37:06.237Z,18.69
2019-03-31T12:38:06.249Z,18.69
2019-03-31T12:39:06.265Z,21.18
2019-03-31T12:40:06.291Z,20.61
2019-03-31T12:41:06.366Z,21.87
2019-03-31T12:42:06.311Z,21.31
2019-03-31T12:43:06.323Z,20.55
2019-03-31T12:44:06.341Z,18.32
2019-03-31T12:45:06.359Z,20.52
2019-03-31T12:46:06.386Z,18.99
2019-03-31T12:47:06.391Z,20.53
2019-03-31T12:48:06.399Z,22.56
2019-03-31T12:49:06.418Z,19.21
2019-03-31T12:50:06.442Z,17.47
2019-03-31T12:51:06.451Z,17.08
2019-03-31T12:52:06.466Z,18.72
2019-03-31T12:53:06.485Z,18.24